sensor_id;sensor_type;location;lat;lon;timestamp;temperature;humidity
29777;DHT22;16677;52.224;7.484;2023-05-10T00:01:46;14.40;99.90
29777;DHT22;16677;52.224;7.484;2023-05-10T00:04:13;14.40;99.90
29777;DHT22;16677;52.224;7.484;2023-05-10T00:06:40;14.40;99.90
29777;DHT22;16677;52.224;7.484;2023-05-10T00:09:07;14.30;99.90
29777;DHT22;16677;52.224;7.484;2023-05-10T00:11:34;14.40;99.90
29777;DHT22;16677;52.224;7.484;2023-05-10T00:14:01;14.30;99.90
29777;DHT22;16677;52.224;7.484;2023-05-10T00:16:28;14.30;99.90
29777;DHT22;16677;52.224;7.484;2023-05-10T00:18:55;14.40;99.90
29777;DHT22;16677;52.224;7.484;2023-05-10T00:21:22;14.30;99.90
29777;DHT22;16677;52.224;7.484;2023-05-10T00:23:48;14.30;99.90
29777;DHT22;16677;52.224;7.484;2023-05-10T00:26:15;14.20;99.90
29777;DHT22;16677;52.224;7.484;2023-05-10T00:28:43;14.20;99.90
29777;DHT22;16677;52.224;7.484;2023-05-10T00:31:10;14.20;99.90
29777;DHT22;16677;52.224;7.484;2023-05-10T00:33:37;14.30;99.90
29777;DHT22;16677;52.224;7.484;2023-05-10T00:36:04;14.20;99.90
29777;DHT22;16677;52.224;7.484;2023-05-10T00:38:34;14.20;99.90
29777;DHT22;16677;52.224;7.484;2023-05-10T00:41:00;14.20;99.90
29777;DHT22;16677;52.224;7.484;2023-05-10T00:43:27;14.20;99.90
29777;DHT22;16677;52.224;7.484;2023-05-10T00:45:54;14.20;99.90
29777;DHT22;16677;52.224;7.484;2023-05-10T00:48:21;14.20;99.90
29777;DHT22;16677;52.224;7.484;2023-05-10T00:50:48;14.30;99.90
29777;DHT22;16677;52.224;7.484;2023-05-10T00:53:16;14.30;99.90
29777;DHT22;16677;52.224;7.484;2023-05-10T00:55:43;14.20;99.90
29777;DHT22;16677;52.224;7.484;2023-05-10T00:58:10;14.20;99.90
29777;DHT22;16677;52.224;7.484;2023-05-10T01:00:37;14.20;99.90
29777;DHT22;16677;52.224;7.484;2023-05-10T01:03:05;14.20;99.90
29777;DHT22;16677;52.224;7.484;2023-05-10T01:05:32;14.10;99.90
29777;DHT22;16677;52.224;7.484;2023-05-10T01:07:59;14.10;99.90
29777;DHT22;16677;52.224;7.484;2023-05-10T01:10:25;14.00;99.90
29777;DHT22;16677;52.224;7.484;2023-05-10T01:12:52;14.10;99.90
29777;DHT22;16677;52.224;7.484;2023-05-10T01:15:19;14.00;99.90
29777;DHT22;16677;52.224;7.484;2023-05-10T01:17:47;14.00;99.90
29777;DHT22;16677;52.224;7.484;2023-05-10T01:20:15;14.00;99.90
29777;DHT22;16677;52.224;7.484;2023-05-10T01:22:47;13.90;99.90
29777;DHT22;16677;52.224;7.484;2023-05-10T01:31:18;13.90;99.90
29777;DHT22;16677;52.224;7.484;2023-05-10T01:36:27;13.60;99.90
29777;DHT22;16677;52.224;7.484;2023-05-10T01:47:28;13.30;99.90
29777;DHT22;16677;52.224;7.484;2023-05-10T01:50:04;13.30;99.90
29777;DHT22;16677;52.224;7.484;2023-05-10T01:52:38;13.30;99.90
29777;DHT22;16677;52.224;7.484;2023-05-10T01:55:09;13.30;99.90
29777;DHT22;16677;52.224;7.484;2023-05-10T01:57:38;13.30;99.90
29777;DHT22;16677;52.224;7.484;2023-05-10T02:00:06;13.20;99.90
29777;DHT22;16677;52.224;7.484;2023-05-10T02:02:39;13.10;99.90
29777;DHT22;16677;52.224;7.484;2023-05-10T02:05:06;13.20;99.90
29777;DHT22;16677;52.224;7.484;2023-05-10T02:07:34;13.10;99.90
29777;DHT22;16677;52.224;7.484;2023-05-10T02:10:02;13.10;99.90
29777;DHT22;16677;52.224;7.484;2023-05-10T02:12:44;13.10;99.90
29777;DHT22;16677;52.224;7.484;2023-05-10T02:15:14;13.00;99.90
29777;DHT22;16677;52.224;7.484;2023-05-10T02:17:43;13.00;99.90
29777;DHT22;16677;52.224;7.484;2023-05-10T02:20:12;13.00;99.90
29777;DHT22;16677;52.224;7.484;2023-05-10T02:22:40;12.90;99.90
29777;DHT22;16677;52.224;7.484;2023-05-10T02:25:08;12.90;99.90
29777;DHT22;16677;52.224;7.484;2023-05-10T02:27:36;13.00;99.90
29777;DHT22;16677;52.224;7.484;2023-05-10T02:30:04;13.00;99.90
29777;DHT22;16677;52.224;7.484;2023-05-10T02:32:32;13.10;99.90
29777;DHT22;16677;52.224;7.484;2023-05-10T02:35:01;13.00;99.90
29777;DHT22;16677;52.224;7.484;2023-05-10T02:37:29;13.00;99.90
29777;DHT22;16677;52.224;7.484;2023-05-10T02:39:56;13.10;99.90
29777;DHT22;16677;52.224;7.484;2023-05-10T02:42:24;13.10;99.90
29777;DHT22;16677;52.224;7.484;2023-05-10T02:44:54;13.10;99.90
29777;DHT22;16677;52.224;7.484;2023-05-10T02:47:24;13.00;99.90
29777;DHT22;16677;52.224;7.484;2023-05-10T02:49:52;13.00;99.90
29777;DHT22;16677;52.224;7.484;2023-05-10T02:52:21;12.90;99.90
29777;DHT22;16677;52.224;7.484;2023-05-10T02:54:52;13.00;99.90
29777;DHT22;16677;52.224;7.484;2023-05-10T02:57:25;12.90;99.90
29777;DHT22;16677;52.224;7.484;2023-05-10T02:59:54;12.80;99.90
29777;DHT22;16677;52.224;7.484;2023-05-10T03:02:21;12.90;99.90
29777;DHT22;16677;52.224;7.484;2023-05-10T03:04:48;12.90;99.90
29777;DHT22;16677;52.224;7.484;2023-05-10T03:07:15;12.90;99.90
29777;DHT22;16677;52.224;7.484;2023-05-10T03:09:45;13.00;99.90
29777;DHT22;16677;52.224;7.484;2023-05-10T03:12:19;13.00;99.90
29777;DHT22;16677;52.224;7.484;2023-05-10T03:15:11;13.00;99.90
29777;DHT22;16677;52.224;7.484;2023-05-10T03:18:01;13.00;99.90
29777;DHT22;16677;52.224;7.484;2023-05-10T03:23:38;13.00;99.90
29777;DHT22;16677;52.224;7.484;2023-05-10T03:26:07;12.80;99.90
29777;DHT22;16677;52.224;7.484;2023-05-10T03:28:35;12.90;99.90
29777;DHT22;16677;52.224;7.484;2023-05-10T03:31:02;12.90;99.90
29777;DHT22;16677;52.224;7.484;2023-05-10T03:33:31;12.90;99.90
29777;DHT22;16677;52.224;7.484;2023-05-10T03:35:58;12.90;99.90
29777;DHT22;16677;52.224;7.484;2023-05-10T03:38:25;12.90;99.90
29777;DHT22;16677;52.224;7.484;2023-05-10T03:40:55;12.80;99.90
29777;DHT22;16677;52.224;7.484;2023-05-10T03:43:22;12.90;99.90
29777;DHT22;16677;52.224;7.484;2023-05-10T03:45:49;12.80;99.90
29777;DHT22;16677;52.224;7.484;2023-05-10T03:48:15;12.90;99.90
29777;DHT22;16677;52.224;7.484;2023-05-10T03:50:42;12.80;99.90
29777;DHT22;16677;52.224;7.484;2023-05-10T03:53:09;12.80;99.90
29777;DHT22;16677;52.224;7.484;2023-05-10T03:55:36;12.80;99.90
29777;DHT22;16677;52.224;7.484;2023-05-10T03:58:03;12.80;99.90
29777;DHT22;16677;52.224;7.484;2023-05-10T04:00:31;12.80;99.90
29777;DHT22;16677;52.224;7.484;2023-05-10T04:02:58;12.90;99.90
29777;DHT22;16677;52.224;7.484;2023-05-10T04:05:25;12.80;99.90
29777;DHT22;16677;52.224;7.484;2023-05-10T04:07:54;12.90;99.90
29777;DHT22;16677;52.224;7.484;2023-05-10T04:10:22;12.80;99.90
29777;DHT22;16677;52.224;7.484;2023-05-10T04:16:18;12.90;99.90
29777;DHT22;16677;52.224;7.484;2023-05-10T04:22:14;13.10;99.90
29777;DHT22;16677;52.224;7.484;2023-05-10T04:25:05;12.80;99.90
29777;DHT22;16677;52.224;7.484;2023-05-10T04:27:32;12.80;99.90
29777;DHT22;16677;52.224;7.484;2023-05-10T04:29:59;12.90;99.90
29777;DHT22;16677;52.224;7.484;2023-05-10T04:32:27;12.90;99.90
29777;DHT22;16677;52.224;7.484;2023-05-10T04:34:54;12.90;99.90
29777;DHT22;16677;52.224;7.484;2023-05-10T04:37:21;12.90;99.90
29777;DHT22;16677;52.224;7.484;2023-05-10T04:39:49;12.90;99.90
29777;DHT22;16677;52.224;7.484;2023-05-10T04:42:16;12.90;99.90
29777;DHT22;16677;52.224;7.484;2023-05-10T04:44:43;12.90;99.90
29777;DHT22;16677;52.224;7.484;2023-05-10T04:47:10;12.90;99.90
29777;DHT22;16677;52.224;7.484;2023-05-10T04:49:38;12.90;99.90
29777;DHT22;16677;52.224;7.484;2023-05-10T04:52:05;12.90;99.90
29777;DHT22;16677;52.224;7.484;2023-05-10T04:54:32;12.90;99.90
29777;DHT22;16677;52.224;7.484;2023-05-10T04:56:59;12.90;99.90
29777;DHT22;16677;52.224;7.484;2023-05-10T04:59:26;13.00;99.90
29777;DHT22;16677;52.224;7.484;2023-05-10T05:01:53;13.00;99.90
29777;DHT22;16677;52.224;7.484;2023-05-10T05:04:20;13.00;99.90
29777;DHT22;16677;52.224;7.484;2023-05-10T05:06:49;13.00;99.90
29777;DHT22;16677;52.224;7.484;2023-05-10T05:09:19;13.00;99.90
29777;DHT22;16677;52.224;7.484;2023-05-10T05:11:46;13.10;99.90
29777;DHT22;16677;52.224;7.484;2023-05-10T05:14:13;13.20;99.90
29777;DHT22;16677;52.224;7.484;2023-05-10T05:16:40;13.30;99.90
29777;DHT22;16677;52.224;7.484;2023-05-10T05:19:07;13.40;99.90
29777;DHT22;16677;52.224;7.484;2023-05-10T05:21:34;13.30;99.90
29777;DHT22;16677;52.224;7.484;2023-05-10T05:24:01;13.30;99.90
29777;DHT22;16677;52.224;7.484;2023-05-10T05:26:28;13.40;99.90
29777;DHT22;16677;52.224;7.484;2023-05-10T05:28:55;13.40;99.90
29777;DHT22;16677;52.224;7.484;2023-05-10T05:31:22;13.50;99.90
29777;DHT22;16677;52.224;7.484;2023-05-10T05:33:49;13.50;99.90
29777;DHT22;16677;52.224;7.484;2023-05-10T05:36:16;13.50;99.90
29777;DHT22;16677;52.224;7.484;2023-05-10T05:38:43;13.50;99.90
29777;DHT22;16677;52.224;7.484;2023-05-10T05:41:10;13.50;99.90
29777;DHT22;16677;52.224;7.484;2023-05-10T05:43:37;13.60;99.90
29777;DHT22;16677;52.224;7.484;2023-05-10T05:46:04;13.70;99.90
29777;DHT22;16677;52.224;7.484;2023-05-10T05:48:31;13.70;99.90
29777;DHT22;16677;52.224;7.484;2023-05-10T05:50:58;13.70;99.90
29777;DHT22;16677;52.224;7.484;2023-05-10T05:53:25;13.70;99.90
29777;DHT22;16677;52.224;7.484;2023-05-10T05:55:53;13.90;99.90
29777;DHT22;16677;52.224;7.484;2023-05-10T05:58:21;13.90;99.90
29777;DHT22;16677;52.224;7.484;2023-05-10T06:00:49;13.90;99.90
29777;DHT22;16677;52.224;7.484;2023-05-10T06:03:16;13.80;99.90
29777;DHT22;16677;52.224;7.484;2023-05-10T06:05:43;13.80;99.90
29777;DHT22;16677;52.224;7.484;2023-05-10T06:08:10;13.90;99.90
29777;DHT22;16677;52.224;7.484;2023-05-10T06:10:37;13.90;99.90
29777;DHT22;16677;52.224;7.484;2023-05-10T06:13:04;14.00;99.90
29777;DHT22;16677;52.224;7.484;2023-05-10T06:15:31;13.90;99.90
29777;DHT22;16677;52.224;7.484;2023-05-10T06:17:59;13.90;99.90
29777;DHT22;16677;52.224;7.484;2023-05-10T06:20:26;14.00;99.90
29777;DHT22;16677;52.224;7.484;2023-05-10T06:22:53;14.10;99.90
29777;DHT22;16677;52.224;7.484;2023-05-10T06:25:20;14.20;99.90
29777;DHT22;16677;52.224;7.484;2023-05-10T06:27:47;14.30;99.90
29777;DHT22;16677;52.224;7.484;2023-05-10T06:30:18;14.20;99.90
29777;DHT22;16677;52.224;7.484;2023-05-10T06:32:45;14.30;99.90
29777;DHT22;16677;52.224;7.484;2023-05-10T06:35:12;14.10;99.90
29777;DHT22;16677;52.224;7.484;2023-05-10T06:37:39;14.10;99.90
29777;DHT22;16677;52.224;7.484;2023-05-10T06:40:06;14.20;99.90
29777;DHT22;16677;52.224;7.484;2023-05-10T06:42:34;14.00;99.90
29777;DHT22;16677;52.224;7.484;2023-05-10T06:45:00;14.00;99.90
29777;DHT22;16677;52.224;7.484;2023-05-10T06:47:27;14.20;99.90
29777;DHT22;16677;52.224;7.484;2023-05-10T06:49:54;14.20;99.90
29777;DHT22;16677;52.224;7.484;2023-05-10T06:52:22;14.20;99.90
29777;DHT22;16677;52.224;7.484;2023-05-10T06:54:49;14.20;99.90
29777;DHT22;16677;52.224;7.484;2023-05-10T06:57:16;14.30;99.90
29777;DHT22;16677;52.224;7.484;2023-05-10T06:59:56;14.30;99.90
29777;DHT22;16677;52.224;7.484;2023-05-10T07:02:23;14.50;99.90
29777;DHT22;16677;52.224;7.484;2023-05-10T07:04:50;14.50;62.60
29777;DHT22;16677;52.224;7.484;2023-05-10T07:07:18;14.40;10.30
29777;DHT22;16677;52.224;7.484;2023-05-10T07:09:45;14.20;51.80
29777;DHT22;16677;52.224;7.484;2023-05-10T07:12:12;14.20;99.90
29777;DHT22;16677;52.224;7.484;2023-05-10T07:14:40;14.20;9.70
29777;DHT22;16677;52.224;7.484;2023-05-10T07:17:08;14.30;99.90
29777;DHT22;16677;52.224;7.484;2023-05-10T07:19:35;14.40;99.90
29777;DHT22;16677;52.224;7.484;2023-05-10T07:22:02;14.50;1.00
29777;DHT22;16677;52.224;7.484;2023-05-10T07:24:29;14.70;23.10
29777;DHT22;16677;52.224;7.484;2023-05-10T07:26:57;14.70;1.00
29777;DHT22;16677;52.224;7.484;2023-05-10T07:29:24;14.70;1.00
29777;DHT22;16677;52.224;7.484;2023-05-10T07:31:52;14.70;1.00
29777;DHT22;16677;52.224;7.484;2023-05-10T07:34:21;14.50;1.00
29777;DHT22;16677;52.224;7.484;2023-05-10T07:36:48;14.70;19.50
29777;DHT22;16677;52.224;7.484;2023-05-10T07:39:15;14.90;11.50
29777;DHT22;16677;52.224;7.484;2023-05-10T07:41:52;14.80;1.00
29777;DHT22;16677;52.224;7.484;2023-05-10T07:44:19;14.90;1.00
29777;DHT22;16677;52.224;7.484;2023-05-10T07:46:47;14.90;1.00
29777;DHT22;16677;52.224;7.484;2023-05-10T07:49:14;14.90;1.00
29777;DHT22;16677;52.224;7.484;2023-05-10T07:51:41;15.20;1.00
29777;DHT22;16677;52.224;7.484;2023-05-10T07:54:09;15.20;99.90
29777;DHT22;16677;52.224;7.484;2023-05-10T07:56:36;15.20;99.90
29777;DHT22;16677;52.224;7.484;2023-05-10T07:59:04;15.00;99.90
29777;DHT22;16677;52.224;7.484;2023-05-10T08:01:34;15.00;1.00
29777;DHT22;16677;52.224;7.484;2023-05-10T08:04:01;15.10;1.00
29777;DHT22;16677;52.224;7.484;2023-05-10T08:06:29;15.30;1.00
29777;DHT22;16677;52.224;7.484;2023-05-10T08:08:57;15.50;1.00
29777;DHT22;16677;52.224;7.484;2023-05-10T08:11:24;15.70;1.00
29777;DHT22;16677;52.224;7.484;2023-05-10T08:13:51;15.80;1.00
29777;DHT22;16677;52.224;7.484;2023-05-10T08:16:19;15.40;1.00
29777;DHT22;16677;52.224;7.484;2023-05-10T08:18:47;15.10;99.90
29777;DHT22;16677;52.224;7.484;2023-05-10T08:21:15;15.00;99.90
29777;DHT22;16677;52.224;7.484;2023-05-10T08:23:43;15.50;1.00
29777;DHT22;16677;52.224;7.484;2023-05-10T08:26:13;15.50;99.90
29777;DHT22;16677;52.224;7.484;2023-05-10T08:28:40;15.60;1.00
29777;DHT22;16677;52.224;7.484;2023-05-10T08:31:07;15.80;1.00
29777;DHT22;16677;52.224;7.484;2023-05-10T08:33:34;15.70;1.00
29777;DHT22;16677;52.224;7.484;2023-05-10T08:36:01;15.80;99.90
29777;DHT22;16677;52.224;7.484;2023-05-10T08:38:28;15.90;1.00
29777;DHT22;16677;52.224;7.484;2023-05-10T08:40:55;15.70;99.90
29777;DHT22;16677;52.224;7.484;2023-05-10T08:43:29;15.60;1.00
29777;DHT22;16677;52.224;7.484;2023-05-10T08:46:00;15.40;99.90
29777;DHT22;16677;52.224;7.484;2023-05-10T08:48:29;15.30;90.10
29777;DHT22;16677;52.224;7.484;2023-05-10T08:50:58;15.40;99.90
29777;DHT22;16677;52.224;7.484;2023-05-10T08:53:28;15.70;99.90
29777;DHT22;16677;52.224;7.484;2023-05-10T08:55:58;15.70;99.90
29777;DHT22;16677;52.224;7.484;2023-05-10T08:58:28;15.50;1.00
29777;DHT22;16677;52.224;7.484;2023-05-10T09:00:55;15.50;99.90
29777;DHT22;16677;52.224;7.484;2023-05-10T09:03:23;15.50;99.90
29777;DHT22;16677;52.224;7.484;2023-05-10T09:05:50;15.60;1.00
29777;DHT22;16677;52.224;7.484;2023-05-10T09:08:18;15.60;99.90
29777;DHT22;16677;52.224;7.484;2023-05-10T09:10:46;15.50;99.90
29777;DHT22;16677;52.224;7.484;2023-05-10T09:13:15;15.60;99.90
29777;DHT22;16677;52.224;7.484;2023-05-10T09:15:44;15.60;99.90
29777;DHT22;16677;52.224;7.484;2023-05-10T09:18:12;15.70;1.00
29777;DHT22;16677;52.224;7.484;2023-05-10T09:20:40;15.90;21.80
29777;DHT22;16677;52.224;7.484;2023-05-10T09:23:07;16.10;1.00
29777;DHT22;16677;52.224;7.484;2023-05-10T09:25:34;15.90;16.70
29777;DHT22;16677;52.224;7.484;2023-05-10T09:28:02;16.10;1.00
29777;DHT22;16677;52.224;7.484;2023-05-10T09:30:32;16.40;1.00
29777;DHT22;16677;52.224;7.484;2023-05-10T09:33:00;16.40;1.00
29777;DHT22;16677;52.224;7.484;2023-05-10T09:35:29;16.30;99.90
29777;DHT22;16677;52.224;7.484;2023-05-10T09:38:01;16.20;1.00
29777;DHT22;16677;52.224;7.484;2023-05-10T09:40:30;16.20;1.00
29777;DHT22;16677;52.224;7.484;2023-05-10T09:45:34;16.00;1.00
29777;DHT22;16677;52.224;7.484;2023-05-10T09:48:05;15.80;1.00
29777;DHT22;16677;52.224;7.484;2023-05-10T09:50:33;15.90;1.00
29777;DHT22;16677;52.224;7.484;2023-05-10T09:53:02;16.40;1.00
29777;DHT22;16677;52.224;7.484;2023-05-10T09:55:40;16.60;1.00
29777;DHT22;16677;52.224;7.484;2023-05-10T09:58:08;16.80;1.00
29777;DHT22;16677;52.224;7.484;2023-05-10T10:00:38;17.00;1.00
29777;DHT22;16677;52.224;7.484;2023-05-10T10:03:07;17.30;1.00
29777;DHT22;16677;52.224;7.484;2023-05-10T10:05:39;17.20;1.00
29777;DHT22;16677;52.224;7.484;2023-05-10T10:08:07;17.60;1.00
29777;DHT22;16677;52.224;7.484;2023-05-10T10:10:35;17.50;99.90
29777;DHT22;16677;52.224;7.484;2023-05-10T10:13:02;17.30;99.90
29777;DHT22;16677;52.224;7.484;2023-05-10T10:15:29;16.90;1.00
29777;DHT22;16677;52.224;7.484;2023-05-10T10:17:56;16.20;1.00
29777;DHT22;16677;52.224;7.484;2023-05-10T10:20:23;16.10;1.00
29777;DHT22;16677;52.224;7.484;2023-05-10T10:22:51;16.40;1.00
29777;DHT22;16677;52.224;7.484;2023-05-10T10:25:19;16.60;1.00
29777;DHT22;16677;52.224;7.484;2023-05-10T10:35:20;16.50;1.00
29777;DHT22;16677;52.224;7.484;2023-05-10T10:37:48;16.40;1.00
29777;DHT22;16677;52.224;7.484;2023-05-10T10:40:26;16.40;99.90
29777;DHT22;16677;52.224;7.484;2023-05-10T10:42:55;16.40;99.90
29777;DHT22;16677;52.224;7.484;2023-05-10T10:45:22;16.70;27.30
29777;DHT22;16677;52.224;7.484;2023-05-10T10:48:19;17.20;99.90
29777;DHT22;16677;52.224;7.484;2023-05-10T10:50:47;16.60;1.00
29777;DHT22;16677;52.224;7.484;2023-05-10T10:53:14;16.90;1.00
29777;DHT22;16677;52.224;7.484;2023-05-10T10:55:47;16.60;1.00
29777;DHT22;16677;52.224;7.484;2023-05-10T10:58:30;16.40;1.00
29777;DHT22;16677;52.224;7.484;2023-05-10T11:03:37;16.30;1.00
29777;DHT22;16677;52.224;7.484;2023-05-10T11:06:04;16.50;1.00
29777;DHT22;16677;52.224;7.484;2023-05-10T11:08:32;16.70;1.00
29777;DHT22;16677;52.224;7.484;2023-05-10T11:11:02;16.70;1.00
29777;DHT22;16677;52.224;7.484;2023-05-10T11:18:37;17.20;99.90
29777;DHT22;16677;52.224;7.484;2023-05-10T11:21:04;17.70;1.00
29777;DHT22;16677;52.224;7.484;2023-05-10T11:26:18;17.30;99.90
29777;DHT22;16677;52.224;7.484;2023-05-10T11:28:45;18.20;1.00
29777;DHT22;16677;52.224;7.484;2023-05-10T11:31:14;18.50;99.90
29777;DHT22;16677;52.224;7.484;2023-05-10T11:33:52;17.60;99.90
29777;DHT22;16677;52.224;7.484;2023-05-10T11:36:27;17.70;1.00
29777;DHT22;16677;52.224;7.484;2023-05-10T11:38:55;17.70;1.00
29777;DHT22;16677;52.224;7.484;2023-05-10T11:41:23;18.40;1.00
29777;DHT22;16677;52.224;7.484;2023-05-10T11:43:52;18.00;99.90
29777;DHT22;16677;52.224;7.484;2023-05-10T11:46:20;17.60;99.90
29777;DHT22;16677;52.224;7.484;2023-05-10T11:48:49;18.00;99.90
29777;DHT22;16677;52.224;7.484;2023-05-10T11:51:21;17.90;99.90
29777;DHT22;16677;52.224;7.484;2023-05-10T11:53:49;17.90;99.90
29777;DHT22;16677;52.224;7.484;2023-05-10T11:56:17;18.50;99.90
29777;DHT22;16677;52.224;7.484;2023-05-10T11:58:44;18.10;1.00
29777;DHT22;16677;52.224;7.484;2023-05-10T12:01:11;17.60;1.00
29777;DHT22;16677;52.224;7.484;2023-05-10T12:03:38;17.60;1.00
29777;DHT22;16677;52.224;7.484;2023-05-10T12:06:06;17.80;1.00
29777;DHT22;16677;52.224;7.484;2023-05-10T12:08:34;17.50;1.00
29777;DHT22;16677;52.224;7.484;2023-05-10T12:11:07;17.10;1.50
29777;DHT22;16677;52.224;7.484;2023-05-10T12:13:37;17.10;1.00
29777;DHT22;16677;52.224;7.484;2023-05-10T12:16:15;16.80;1.00
29777;DHT22;16677;52.224;7.484;2023-05-10T12:18:50;17.10;1.00
29777;DHT22;16677;52.224;7.484;2023-05-10T12:21:18;17.50;1.00
29777;DHT22;16677;52.224;7.484;2023-05-10T12:23:48;17.80;1.00
29777;DHT22;16677;52.224;7.484;2023-05-10T12:26:17;18.30;1.00
29777;DHT22;16677;52.224;7.484;2023-05-10T12:28:44;17.80;99.90
29777;DHT22;16677;52.224;7.484;2023-05-10T12:31:11;17.40;1.00
29777;DHT22;16677;52.224;7.484;2023-05-10T12:33:38;17.10;1.00
29777;DHT22;16677;52.224;7.484;2023-05-10T12:36:12;17.30;1.00
29777;DHT22;16677;52.224;7.484;2023-05-10T12:38:41;17.40;1.00
29777;DHT22;16677;52.224;7.484;2023-05-10T12:41:19;17.70;1.00
29777;DHT22;16677;52.224;7.484;2023-05-10T12:43:46;17.40;1.00
29777;DHT22;16677;52.224;7.484;2023-05-10T12:46:13;17.60;1.00
29777;DHT22;16677;52.224;7.484;2023-05-10T12:48:42;18.00;1.00
29777;DHT22;16677;52.224;7.484;2023-05-10T12:51:09;17.70;1.00
29777;DHT22;16677;52.224;7.484;2023-05-10T12:53:38;17.70;1.00
29777;DHT22;16677;52.224;7.484;2023-05-10T12:56:08;18.00;99.90
29777;DHT22;16677;52.224;7.484;2023-05-10T12:58:35;17.70;99.90
29777;DHT22;16677;52.224;7.484;2023-05-10T13:01:02;17.40;1.00
29777;DHT22;16677;52.224;7.484;2023-05-10T13:03:30;17.50;1.00
29777;DHT22;16677;52.224;7.484;2023-05-10T13:05:57;17.20;1.00
29777;DHT22;16677;52.224;7.484;2023-05-10T13:08:24;17.20;1.00
29777;DHT22;16677;52.224;7.484;2023-05-10T13:10:51;17.50;1.00
29777;DHT22;16677;52.224;7.484;2023-05-10T13:13:18;17.10;1.00
29777;DHT22;16677;52.224;7.484;2023-05-10T13:15:45;17.30;1.00
29777;DHT22;16677;52.224;7.484;2023-05-10T13:18:12;17.60;1.00
29777;DHT22;16677;52.224;7.484;2023-05-10T13:20:40;17.70;1.00
29777;DHT22;16677;52.224;7.484;2023-05-10T13:23:07;17.40;1.00
29777;DHT22;16677;52.224;7.484;2023-05-10T13:25:34;16.90;99.90
29777;DHT22;16677;52.224;7.484;2023-05-10T13:28:01;17.40;99.90
29777;DHT22;16677;52.224;7.484;2023-05-10T13:30:28;17.90;99.90
29777;DHT22;16677;52.224;7.484;2023-05-10T13:32:55;18.40;99.90
29777;DHT22;16677;52.224;7.484;2023-05-10T13:35:22;18.50;99.90
29777;DHT22;16677;52.224;7.484;2023-05-10T13:37:49;18.10;99.90
29777;DHT22;16677;52.224;7.484;2023-05-10T13:40:16;18.10;99.90
29777;DHT22;16677;52.224;7.484;2023-05-10T13:42:43;17.60;99.90
29777;DHT22;16677;52.224;7.484;2023-05-10T13:45:12;17.50;99.90
29777;DHT22;16677;52.224;7.484;2023-05-10T13:47:39;17.50;99.90
29777;DHT22;16677;52.224;7.484;2023-05-10T13:50:06;17.60;99.90
29777;DHT22;16677;52.224;7.484;2023-05-10T13:52:34;17.70;99.90
29777;DHT22;16677;52.224;7.484;2023-05-10T13:55:00;17.90;1.00
29777;DHT22;16677;52.224;7.484;2023-05-10T13:57:28;18.10;99.90
29777;DHT22;16677;52.224;7.484;2023-05-10T13:59:56;18.00;99.90
29777;DHT22;16677;52.224;7.484;2023-05-10T14:02:24;17.70;99.90
29777;DHT22;16677;52.224;7.484;2023-05-10T14:04:53;17.30;1.00
29777;DHT22;16677;52.224;7.484;2023-05-10T14:07:20;17.20;1.00
29777;DHT22;16677;52.224;7.484;2023-05-10T14:09:47;17.20;1.00
29777;DHT22;16677;52.224;7.484;2023-05-10T14:12:14;17.20;1.00
29777;DHT22;16677;52.224;7.484;2023-05-10T14:14:41;17.30;1.00
29777;DHT22;16677;52.224;7.484;2023-05-10T14:17:09;17.60;1.00
29777;DHT22;16677;52.224;7.484;2023-05-10T14:19:38;17.50;1.00
29777;DHT22;16677;52.224;7.484;2023-05-10T14:22:06;17.80;1.00
29777;DHT22;16677;52.224;7.484;2023-05-10T14:24:33;18.00;99.90
29777;DHT22;16677;52.224;7.484;2023-05-10T14:27:00;18.10;99.90
29777;DHT22;16677;52.224;7.484;2023-05-10T14:29:27;18.20;99.90
29777;DHT22;16677;52.224;7.484;2023-05-10T14:31:54;18.30;99.90
29777;DHT22;16677;52.224;7.484;2023-05-10T14:34:21;18.40;99.90
29777;DHT22;16677;52.224;7.484;2023-05-10T14:36:48;18.30;99.90
29777;DHT22;16677;52.224;7.484;2023-05-10T14:39:16;17.60;99.90
29777;DHT22;16677;52.224;7.484;2023-05-10T14:41:43;17.60;99.90
29777;DHT22;16677;52.224;7.484;2023-05-10T14:44:11;17.60;99.90
29777;DHT22;16677;52.224;7.484;2023-05-10T14:46:38;17.50;99.90
29777;DHT22;16677;52.224;7.484;2023-05-10T14:49:06;17.60;1.00
29777;DHT22;16677;52.224;7.484;2023-05-10T14:51:33;17.50;1.00
29777;DHT22;16677;52.224;7.484;2023-05-10T14:54:00;17.20;1.00
29777;DHT22;16677;52.224;7.484;2023-05-10T14:56:27;17.20;1.00
29777;DHT22;16677;52.224;7.484;2023-05-10T14:58:54;17.10;1.00
29777;DHT22;16677;52.224;7.484;2023-05-10T15:01:22;17.00;1.00
29777;DHT22;16677;52.224;7.484;2023-05-10T15:03:49;16.70;1.00
29777;DHT22;16677;52.224;7.484;2023-05-10T15:06:17;16.60;66.90
29777;DHT22;16677;52.224;7.484;2023-05-10T15:08:50;16.60;1.00
29777;DHT22;16677;52.224;7.484;2023-05-10T15:11:17;16.60;1.00
29777;DHT22;16677;52.224;7.484;2023-05-10T15:13:44;16.30;58.00
29777;DHT22;16677;52.224;7.484;2023-05-10T15:16:11;16.30;1.00
29777;DHT22;16677;52.224;7.484;2023-05-10T15:18:38;16.40;28.90
29777;DHT22;16677;52.224;7.484;2023-05-10T15:21:05;16.50;1.00
29777;DHT22;16677;52.224;7.484;2023-05-10T15:23:32;16.70;1.00
29777;DHT22;16677;52.224;7.484;2023-05-10T15:26:00;16.80;1.00
29777;DHT22;16677;52.224;7.484;2023-05-10T15:28:27;16.70;1.00
29777;DHT22;16677;52.224;7.484;2023-05-10T15:30:55;16.90;1.00
29777;DHT22;16677;52.224;7.484;2023-05-10T15:33:22;17.30;1.00
29777;DHT22;16677;52.224;7.484;2023-05-10T15:35:49;17.10;1.00
29777;DHT22;16677;52.224;7.484;2023-05-10T15:38:17;17.20;1.00
29777;DHT22;16677;52.224;7.484;2023-05-10T15:40:44;17.00;1.00
29777;DHT22;16677;52.224;7.484;2023-05-10T15:43:12;16.90;1.00
29777;DHT22;16677;52.224;7.484;2023-05-10T15:45:39;16.90;1.00
29777;DHT22;16677;52.224;7.484;2023-05-10T15:48:06;17.30;1.00
29777;DHT22;16677;52.224;7.484;2023-05-10T15:50:33;17.80;99.90
29777;DHT22;16677;52.224;7.484;2023-05-10T15:53:00;17.90;99.90
29777;DHT22;16677;52.224;7.484;2023-05-10T15:57:57;18.60;99.90
29777;DHT22;16677;52.224;7.484;2023-05-10T16:00:24;18.80;99.90
29777;DHT22;16677;52.224;7.484;2023-05-10T16:02:51;19.00;99.90
29777;DHT22;16677;52.224;7.484;2023-05-10T16:05:19;19.10;99.90
29777;DHT22;16677;52.224;7.484;2023-05-10T16:07:47;18.50;99.90
29777;DHT22;16677;52.224;7.484;2023-05-10T16:10:14;17.70;99.90
29777;DHT22;16677;52.224;7.484;2023-05-10T16:12:42;18.40;99.90
29777;DHT22;16677;52.224;7.484;2023-05-10T16:15:09;18.30;99.90
29777;DHT22;16677;52.224;7.484;2023-05-10T16:17:36;18.50;99.90
29777;DHT22;16677;52.224;7.484;2023-05-10T16:20:03;18.50;99.90
29777;DHT22;16677;52.224;7.484;2023-05-10T16:22:30;18.10;99.90
29777;DHT22;16677;52.224;7.484;2023-05-10T16:24:57;18.10;99.90
29777;DHT22;16677;52.224;7.484;2023-05-10T16:27:24;17.90;99.90
29777;DHT22;16677;52.224;7.484;2023-05-10T16:29:56;17.90;1.00
29777;DHT22;16677;52.224;7.484;2023-05-10T16:32:23;17.70;99.90